sensor_id;sensor_type;location;lat;lon;timestamp;P1;durP1;ratioP1;P2;durP2;ratioP2
29538;SDS011;16482;51.046;4.498;2023-12-20T00:00:48;4.15;;;1.90;;
29538;SDS011;16482;51.046;4.498;2023-12-20T00:03:14;3.40;;;1.70;;
29538;SDS011;16482;51.046;4.498;2023-12-20T00:05:50;5.32;;;2.00;;
29538;SDS011;16482;51.046;4.498;2023-12-20T00:08:16;4.43;;;1.88;;
29538;SDS011;16482;51.046;4.498;2023-12-20T00:10:44;4.15;;;1.30;;
29538;SDS011;16482;51.046;4.498;2023-12-20T00:13:10;3.13;;;1.50;;
29538;SDS011;16482;51.046;4.498;2023-12-20T00:15:36;3.08;;;1.67;;
29538;SDS011;16482;51.046;4.498;2023-12-20T00:18:12;4.28;;;1.60;;
29538;SDS011;16482;51.046;4.498;2023-12-20T00:20:47;3.25;;;1.60;;
29538;SDS011;16482;51.046;4.498;2023-12-20T00:23:16;4.88;;;1.63;;
29538;SDS011;16482;51.046;4.498;2023-12-20T00:25:45;2.63;;;1.30;;
29538;SDS011;16482;51.046;4.498;2023-12-20T00:28:21;3.60;;;1.52;;
29538;SDS011;16482;51.046;4.498;2023-12-20T00:30:47;4.15;;;1.77;;
29538;SDS011;16482;51.046;4.498;2023-12-20T00:33:23;4.53;;;1.80;;
29538;SDS011;16482;51.046;4.498;2023-12-20T00:35:59;5.20;;;1.90;;
29538;SDS011;16482;51.046;4.498;2023-12-20T00:38:25;4.78;;;1.35;;
29538;SDS011;16482;51.046;4.498;2023-12-20T00:41:00;3.88;;;1.48;;
29538;SDS011;16482;51.046;4.498;2023-12-20T00:43:26;4.82;;;1.70;;
29538;SDS011;16482;51.046;4.498;2023-12-20T00:45:51;2.85;;;1.52;;
29538;SDS011;16482;51.046;4.498;2023-12-20T00:48:17;4.97;;;1.58;;
29538;SDS011;16482;51.046;4.498;2023-12-20T00:50:53;4.03;;;1.63;;
29538;SDS011;16482;51.046;4.498;2023-12-20T00:53:29;2.83;;;1.48;;
29538;SDS011;16482;51.046;4.498;2023-12-20T00:55:55;4.38;;;1.60;;
29538;SDS011;16482;51.046;4.498;2023-12-20T00:58:24;4.40;;;1.80;;
29538;SDS011;16482;51.046;4.498;2023-12-20T01:00:50;4.57;;;1.60;;
29538;SDS011;16482;51.046;4.498;2023-12-20T01:03:16;3.80;;;1.80;;
29538;SDS011;16482;51.046;4.498;2023-12-20T01:05:42;2.35;;;1.55;;
29538;SDS011;16482;51.046;4.498;2023-12-20T01:08:18;3.80;;;1.70;;
29538;SDS011;16482;51.046;4.498;2023-12-20T01:10:44;3.88;;;1.67;;
29538;SDS011;16482;51.046;4.498;2023-12-20T01:13:18;2.92;;;1.52;;
29538;SDS011;16482;51.046;4.498;2023-12-20T01:15:44;4.40;;;1.77;;
29538;SDS011;16482;51.046;4.498;2023-12-20T01:18:14;4.03;;;1.92;;
29538;SDS011;16482;51.046;4.498;2023-12-20T01:20:40;4.22;;;1.60;;
29538;SDS011;16482;51.046;4.498;2023-12-20T01:23:11;4.40;;;1.63;;
29538;SDS011;16482;51.046;4.498;2023-12-20T01:25:40;3.83;;;1.65;;
29538;SDS011;16482;51.046;4.498;2023-12-20T01:28:06;3.40;;;1.58;;
29538;SDS011;16482;51.046;4.498;2023-12-20T01:30:32;4.13;;;1.60;;
29538;SDS011;16482;51.046;4.498;2023-12-20T01:32:59;7.50;;;1.70;;
29538;SDS011;16482;51.046;4.498;2023-12-20T01:35:25;5.22;;;1.58;;
29538;SDS011;16482;51.046;4.498;2023-12-20T01:37:51;4.53;;;1.75;;
29538;SDS011;16482;51.046;4.498;2023-12-20T01:40:26;4.38;;;1.90;;
29538;SDS011;16482;51.046;4.498;2023-12-20T01:43:01;3.85;;;1.75;;
29538;SDS011;16482;51.046;4.498;2023-12-20T01:45:44;4.18;;;1.60;;
29538;SDS011;16482;51.046;4.498;2023-12-20T01:48:11;4.20;;;1.50;;
29538;SDS011;16482;51.046;4.498;2023-12-20T01:50:40;5.72;;;1.83;;
29538;SDS011;16482;51.046;4.498;2023-12-20T01:53:09;4.25;;;1.52;;
29538;SDS011;16482;51.046;4.498;2023-12-20T01:55:42;3.47;;;1.67;;
29538;SDS011;16482;51.046;4.498;2023-12-20T01:58:09;3.90;;;1.98;;
29538;SDS011;16482;51.046;4.498;2023-12-20T02:00:39;3.75;;;1.67;;
29538;SDS011;16482;51.046;4.498;2023-12-20T02:03:15;3.85;;;1.75;;
29538;SDS011;16482;51.046;4.498;2023-12-20T02:05:41;4.65;;;1.70;;
29538;SDS011;16482;51.046;4.498;2023-12-20T02:08:08;4.10;;;1.75;;
29538;SDS011;16482;51.046;4.498;2023-12-20T02:10:44;4.30;;;1.55;;
29538;SDS011;16482;51.046;4.498;2023-12-20T02:13:13;4.53;;;1.80;;
29538;SDS011;16482;51.046;4.498;2023-12-20T02:15:38;4.22;;;1.60;;
29538;SDS011;16482;51.046;4.498;2023-12-20T02:18:10;5.25;;;1.70;;
29538;SDS011;16482;51.046;4.498;2023-12-20T02:20:39;3.75;;;1.33;;
29538;SDS011;16482;51.046;4.498;2023-12-20T02:23:10;2.95;;;1.60;;
29538;SDS011;16482;51.046;4.498;2023-12-20T02:25:36;3.38;;;1.35;;
29538;SDS011;16482;51.046;4.498;2023-12-20T02:28:07;4.45;;;1.80;;
29538;SDS011;16482;51.046;4.498;2023-12-20T02:30:35;4.00;;;1.45;;
29538;SDS011;16482;51.046;4.498;2023-12-20T02:33:14;4.18;;;1.60;;
29538;SDS011;16482;51.046;4.498;2023-12-20T02:35:41;4.07;;;1.52;;
29538;SDS011;16482;51.046;4.498;2023-12-20T02:38:09;4.65;;;1.70;;
29538;SDS011;16482;51.046;4.498;2023-12-20T02:40:41;4.65;;;1.80;;
29538;SDS011;16482;51.046;4.498;2023-12-20T02:43:17;5.63;;;1.95;;
29538;SDS011;16482;51.046;4.498;2023-12-20T02:45:43;3.95;;;1.73;;
29538;SDS011;16482;51.046;4.498;2023-12-20T02:48:19;4.22;;;1.77;;
29538;SDS011;16482;51.046;4.498;2023-12-20T02:50:45;5.43;;;1.67;;
29538;SDS011;16482;51.046;4.498;2023-12-20T02:53:20;4.65;;;1.67;;
29538;SDS011;16482;51.046;4.498;2023-12-20T02:55:48;4.60;;;1.73;;
29538;SDS011;16482;51.046;4.498;2023-12-20T02:58:14;5.03;;;1.75;;
29538;SDS011;16482;51.046;4.498;2023-12-20T03:00:43;3.90;;;1.80;;
29538;SDS011;16482;51.046;4.498;2023-12-20T03:03:19;4.40;;;1.50;;
29538;SDS011;16482;51.046;4.498;2023-12-20T03:05:45;3.70;;;1.55;;
29538;SDS011;16482;51.046;4.498;2023-12-20T03:08:11;3.53;;;1.40;;
29538;SDS011;16482;51.046;4.498;2023-12-20T03:10:40;5.18;;;1.60;;
29538;SDS011;16482;51.046;4.498;2023-12-20T03:13:09;4.28;;;1.58;;
29538;SDS011;16482;51.046;4.498;2023-12-20T03:15:44;4.55;;;1.90;;
29538;SDS011;16482;51.046;4.498;2023-12-20T03:18:15;4.15;;;1.58;;
29538;SDS011;16482;51.046;4.498;2023-12-20T03:20:42;5.18;;;2.17;;
29538;SDS011;16482;51.046;4.498;2023-12-20T03:23:12;3.72;;;1.80;;
29538;SDS011;16482;51.046;4.498;2023-12-20T03:25:48;3.58;;;1.50;;
29538;SDS011;16482;51.046;4.498;2023-12-20T03:28:16;4.43;;;1.90;;
29538;SDS011;16482;51.046;4.498;2023-12-20T03:30:51;4.57;;;1.88;;
29538;SDS011;16482;51.046;4.498;2023-12-20T03:33:17;3.38;;;1.70;;
29538;SDS011;16482;51.046;4.498;2023-12-20T03:35:45;5.30;;;2.13;;
29538;SDS011;16482;51.046;4.498;2023-12-20T03:38:11;5.80;;;2.08;;
29538;SDS011;16482;51.046;4.498;2023-12-20T03:40:40;5.05;;;1.90;;
29538;SDS011;16482;51.046;4.498;2023-12-20T03:43:13;5.55;;;1.90;;
29538;SDS011;16482;51.046;4.498;2023-12-20T03:45:42;4.05;;;1.63;;
29538;SDS011;16482;51.046;4.498;2023-12-20T03:48:10;4.93;;;1.95;;
29538;SDS011;16482;51.046;4.498;2023-12-20T03:50:41;4.78;;;1.60;;
29538;SDS011;16482;51.046;4.498;2023-12-20T03:53:17;4.30;;;1.58;;
29538;SDS011;16482;51.046;4.498;2023-12-20T03:55:43;3.75;;;1.60;;
29538;SDS011;16482;51.046;4.498;2023-12-20T03:58:12;5.18;;;1.70;;
29538;SDS011;16482;51.046;4.498;2023-12-20T04:00:40;5.05;;;1.73;;
29538;SDS011;16482;51.046;4.498;2023-12-20T04:03:19;4.72;;;1.88;;
29538;SDS011;16482;51.046;4.498;2023-12-20T04:05:52;6.05;;;1.85;;
29538;SDS011;16482;51.046;4.498;2023-12-20T04:08:27;6.65;;;2.17;;
29538;SDS011;16482;51.046;4.498;2023-12-20T04:10:56;5.65;;;1.90;;
29538;SDS011;16482;51.046;4.498;2023-12-20T04:13:22;4.53;;;1.65;;
29538;SDS011;16482;51.046;4.498;2023-12-20T04:15:47;4.35;;;1.88;;
29538;SDS011;16482;51.046;4.498;2023-12-20T04:18:16;3.60;;;1.60;;
29538;SDS011;16482;51.046;4.498;2023-12-20T04:20:45;4.97;;;1.83;;
29538;SDS011;16482;51.046;4.498;2023-12-20T04:23:21;6.03;;;1.83;;
29538;SDS011;16482;51.046;4.498;2023-12-20T04:25:47;4.82;;;1.95;;
29538;SDS011;16482;51.046;4.498;2023-12-20T04:28:13;7.10;;;1.85;;
29538;SDS011;16482;51.046;4.498;2023-12-20T04:30:41;5.65;;;2.22;;
29538;SDS011;16482;51.046;4.498;2023-12-20T04:33:15;4.15;;;1.90;;
29538;SDS011;16482;51.046;4.498;2023-12-20T04:35:40;5.75;;;2.25;;
29538;SDS011;16482;51.046;4.498;2023-12-20T04:38:08;4.38;;;1.58;;
29538;SDS011;16482;51.046;4.498;2023-12-20T04:40:39;5.10;;;2.05;;
29538;SDS011;16482;51.046;4.498;2023-12-20T04:43:08;4.50;;;2.00;;
29538;SDS011;16482;51.046;4.498;2023-12-20T04:45:36;5.10;;;2.08;;
29538;SDS011;16482;51.046;4.498;2023-12-20T04:48:05;5.82;;;2.10;;
29538;SDS011;16482;51.046;4.498;2023-12-20T04:50:42;5.28;;;2.00;;
29538;SDS011;16482;51.046;4.498;2023-12-20T04:53:07;5.20;;;1.90;;
29538;SDS011;16482;51.046;4.498;2023-12-20T04:55:33;5.78;;;1.92;;
29538;SDS011;16482;51.046;4.498;2023-12-20T04:57:59;4.85;;;2.10;;
29538;SDS011;16482;51.046;4.498;2023-12-20T05:00:25;4.82;;;2.00;;
29538;SDS011;16482;51.046;4.498;2023-12-20T05:03:01;4.93;;;1.70;;
29538;SDS011;16482;51.046;4.498;2023-12-20T05:05:27;5.97;;;2.08;;
29538;SDS011;16482;51.046;4.498;2023-12-20T05:07:53;5.00;;;1.80;;
29538;SDS011;16482;51.046;4.498;2023-12-20T05:10:19;4.95;;;1.88;;
29538;SDS011;16482;51.046;4.498;2023-12-20T05:12:45;5.53;;;2.28;;
29538;SDS011;16482;51.046;4.498;2023-12-20T05:15:11;5.47;;;2.28;;
29538;SDS011;16482;51.046;4.498;2023-12-20T05:17:36;4.47;;;1.63;;
29538;SDS011;16482;51.046;4.498;2023-12-20T05:20:02;4.82;;;1.90;;
29538;SDS011;16482;51.046;4.498;2023-12-20T05:22:31;4.53;;;1.95;;
29538;SDS011;16482;51.046;4.498;2023-12-20T05:24:57;4.28;;;1.52;;
29538;SDS011;16482;51.046;4.498;2023-12-20T05:27:22;6.90;;;2.10;;
29538;SDS011;16482;51.046;4.498;2023-12-20T05:29:48;5.15;;;1.85;;
29538;SDS011;16482;51.046;4.498;2023-12-20T05:32:15;4.25;;;1.58;;
29538;SDS011;16482;51.046;4.498;2023-12-20T05:34:41;4.25;;;1.73;;
29538;SDS011;16482;51.046;4.498;2023-12-20T05:37:07;4.55;;;1.95;;
29538;SDS011;16482;51.046;4.498;2023-12-20T05:39:36;5.07;;;1.90;;
29538;SDS011;16482;51.046;4.498;2023-12-20T05:42:02;3.67;;;1.58;;
29538;SDS011;16482;51.046;4.498;2023-12-20T05:44:38;4.45;;;1.60;;
29538;SDS011;16482;51.046;4.498;2023-12-20T05:47:04;3.95;;;1.50;;
29538;SDS011;16482;51.046;4.498;2023-12-20T05:49:39;4.90;;;2.00;;
29538;SDS011;16482;51.046;4.498;2023-12-20T05:52:05;3.17;;;1.50;;
29538;SDS011;16482;51.046;4.498;2023-12-20T05:54:34;4.68;;;1.73;;
29538;SDS011;16482;51.046;4.498;2023-12-20T05:57:10;3.85;;;1.85;;
29538;SDS011;16482;51.046;4.498;2023-12-20T05:59:46;3.30;;;1.50;;
29538;SDS011;16482;51.046;4.498;2023-12-20T06:02:15;3.33;;;1.58;;
29538;SDS011;16482;51.046;4.498;2023-12-20T06:04:51;5.32;;;1.80;;
29538;SDS011;16482;51.046;4.498;2023-12-20T06:07:22;3.95;;;1.60;;
29538;SDS011;16482;51.046;4.498;2023-12-20T06:09:50;5.55;;;1.70;;
29538;SDS011;16482;51.046;4.498;2023-12-20T06:12:21;3.60;;;1.70;;
29538;SDS011;16482;51.046;4.498;2023-12-20T06:14:47;4.80;;;1.60;;
29538;SDS011;16482;51.046;4.498;2023-12-20T06:17:20;4.95;;;1.67;;
29538;SDS011;16482;51.046;4.498;2023-12-20T06:19:55;4.22;;;1.50;;
29538;SDS011;16482;51.046;4.498;2023-12-20T06:22:24;3.92;;;1.38;;
29538;SDS011;16482;51.046;4.498;2023-12-20T06:24:50;5.28;;;2.10;;
29538;SDS011;16482;51.046;4.498;2023-12-20T06:27:16;4.35;;;1.90;;
29538;SDS011;16482;51.046;4.498;2023-12-20T06:29:42;4.57;;;1.73;;
29538;SDS011;16482;51.046;4.498;2023-12-20T06:32:10;4.45;;;1.90;;
29538;SDS011;16482;51.046;4.498;2023-12-20T06:34:35;4.05;;;1.63;;
29538;SDS011;16482;51.046;4.498;2023-12-20T06:37:03;4.88;;;1.63;;
29538;SDS011;16482;51.046;4.498;2023-12-20T06:39:30;4.18;;;1.75;;
29538;SDS011;16482;51.046;4.498;2023-12-20T06:42:03;5.00;;;2.00;;
29538;SDS011;16482;51.046;4.498;2023-12-20T06:44:29;6.80;;;2.20;;
29538;SDS011;16482;51.046;4.498;2023-12-20T06:51:56;3.22;;;1.90;;
29538;SDS011;16482;51.046;4.498;2023-12-20T06:54:22;5.13;;;2.05;;
29538;SDS011;16482;51.046;4.498;2023-12-20T06:56:47;4.30;;;2.00;;
29538;SDS011;16482;51.046;4.498;2023-12-20T06:59:16;4.70;;;1.48;;
29538;SDS011;16482;51.046;4.498;2023-12-20T07:01:42;4.43;;;1.75;;
29538;SDS011;16482;51.046;4.498;2023-12-20T07:04:12;3.97;;;1.63;;
29538;SDS011;16482;51.046;4.498;2023-12-20T07:06:47;5.30;;;1.90;;
29538;SDS011;16482;51.046;4.498;2023-12-20T07:09:16;4.75;;;1.73;;
29538;SDS011;16482;51.046;4.498;2023-12-20T07:11:52;4.70;;;1.98;;
29538;SDS011;16482;51.046;4.498;2023-12-20T07:14:20;3.50;;;1.75;;
29538;SDS011;16482;51.046;4.498;2023-12-20T07:16:48;3.78;;;1.45;;
29538;SDS011;16482;51.046;4.498;2023-12-20T07:19:23;4.43;;;2.08;;
29538;SDS011;16482;51.046;4.498;2023-12-20T07:21:49;7.70;;;2.15;;
29538;SDS011;16482;51.046;4.498;2023-12-20T07:24:15;5.93;;;2.22;;
29538;SDS011;16482;51.046;4.498;2023-12-20T07:26:43;4.28;;;2.05;;
29538;SDS011;16482;51.046;4.498;2023-12-20T07:29:09;5.43;;;2.00;;
29538;SDS011;16482;51.046;4.498;2023-12-20T07:31:37;5.25;;;2.13;;
29538;SDS011;16482;51.046;4.498;2023-12-20T07:34:03;6.85;;;2.25;;
29538;SDS011;16482;51.046;4.498;2023-12-20T07:36:32;5.00;;;1.58;;
29538;SDS011;16482;51.046;4.498;2023-12-20T07:38:58;5.15;;;2.17;;
29538;SDS011;16482;51.046;4.498;2023-12-20T07:41:29;6.00;;;1.90;;
29538;SDS011;16482;51.046;4.498;2023-12-20T07:44:05;3.70;;;1.60;;
29538;SDS011;16482;51.046;4.498;2023-12-20T07:46:34;8.25;;;1.63;;
29538;SDS011;16482;51.046;4.498;2023-12-20T07:49:02;9.70;;;2.22;;
29538;SDS011;16482;51.046;4.498;2023-12-20T07:51:32;8.82;;;2.15;;
29538;SDS011;16482;51.046;4.498;2023-12-20T07:53:58;4.72;;;1.98;;
29538;SDS011;16482;51.046;4.498;2023-12-20T08:01:32;7.65;;;1.98;;
29538;SDS011;16482;51.046;4.498;2023-12-20T08:04:07;6.72;;;2.22;;
29538;SDS011;16482;51.046;4.498;2023-12-20T08:06:36;7.25;;;2.53;;
29538;SDS011;16482;51.046;4.498;2023-12-20T08:09:05;6.28;;;2.28;;
29538;SDS011;16482;51.046;4.498;2023-12-20T08:11:30;8.30;;;2.30;;
29538;SDS011;16482;51.046;4.498;2023-12-20T08:13:56;8.15;;;2.45;;
29538;SDS011;16482;51.046;4.498;2023-12-20T08:16:23;6.65;;;2.30;;
29538;SDS011;16482;51.046;4.498;2023-12-20T08:18:50;6.15;;;2.50;;
29538;SDS011;16482;51.046;4.498;2023-12-20T08:21:16;6.97;;;2.60;;
29538;SDS011;16482;51.046;4.498;2023-12-20T08:23:44;8.00;;;2.40;;
29538;SDS011;16482;51.046;4.498;2023-12-20T08:26:14;6.82;;;2.30;;
29538;SDS011;16482;51.046;4.498;2023-12-20T08:28:46;6.53;;;2.35;;
29538;SDS011;16482;51.046;4.498;2023-12-20T08:31:15;7.65;;;2.47;;
29538;SDS011;16482;51.046;4.498;2023-12-20T08:33:44;12.30;;;2.40;;
29538;SDS011;16482;51.046;4.498;2023-12-20T08:36:14;9.63;;;2.08;;
29538;SDS011;16482;51.046;4.498;2023-12-20T08:38:40;7.25;;;2.35;;
29538;SDS011;16482;51.046;4.498;2023-12-20T08:41:16;7.20;;;2.58;;
29538;SDS011;16482;51.046;4.498;2023-12-20T08:43:42;6.28;;;2.67;;
29538;SDS011;16482;51.046;4.498;2023-12-20T08:46:08;6.88;;;2.78;;
29538;SDS011;16482;51.046;4.498;2023-12-20T08:48:37;7.18;;;2.88;;
29538;SDS011;16482;51.046;4.498;2023-12-20T08:51:05;6.82;;;2.70;;
29538;SDS011;16482;51.046;4.498;2023-12-20T08:53:34;4.97;;;2.75;;
29538;SDS011;16482;51.046;4.498;2023-12-20T08:56:03;6.82;;;2.92;;
29538;SDS011;16482;51.046;4.498;2023-12-20T08:58:29;7.32;;;2.88;;
29538;SDS011;16482;51.046;4.498;2023-12-20T09:00:55;6.20;;;2.60;;
29538;SDS011;16482;51.046;4.498;2023-12-20T09:03:22;6.82;;;2.70;;
29538;SDS011;16482;51.046;4.498;2023-12-20T09:05:48;5.80;;;2.63;;
29538;SDS011;16482;51.046;4.498;2023-12-20T09:08:16;6.68;;;3.00;;
29538;SDS011;16482;51.046;4.498;2023-12-20T09:10:42;7.45;;;3.28;;
29538;SDS011;16482;51.046;4.498;2023-12-20T09:13:18;7.25;;;2.80;;
29538;SDS011;16482;51.046;4.498;2023-12-20T09:15:47;8.02;;;2.55;;
29538;SDS011;16482;51.046;4.498;2023-12-20T09:18:13;6.90;;;2.65;;
29538;SDS011;16482;51.046;4.498;2023-12-20T09:20:44;8.45;;;3.00;;
29538;SDS011;16482;51.046;4.498;2023-12-20T09:23:13;9.82;;;2.60;;
29538;SDS011;16482;51.046;4.498;2023-12-20T09:25:42;5.47;;;2.47;;
29538;SDS011;16482;51.046;4.498;2023-12-20T09:28:12;6.07;;;2.17;;
29538;SDS011;16482;51.046;4.498;2023-12-20T09:30:38;6.45;;;2.47;;
29538;SDS011;16482;51.046;4.498;2023-12-20T09:33:12;5.55;;;2.15;;
29538;SDS011;16482;51.046;4.498;2023-12-20T09:35:41;5.55;;;2.50;;
29538;SDS011;16482;51.046;4.498;2023-12-20T09:38:12;9.65;;;2.47;;
29538;SDS011;16482;51.046;4.498;2023-12-20T09:40:43;7.43;;;2.70;;
29538;SDS011;16482;51.046;4.498;2023-12-20T09:43:15;3.83;;;1.80;;
29538;SDS011;16482;51.046;4.498;2023-12-20T09:45:47;5.93;;;2.30;;
29538;SDS011;16482;51.046;4.498;2023-12-20T09:48:18;8.05;;;2.22;;
29538;SDS011;16482;51.046;4.498;2023-12-20T09:50:47;6.55;;;2.30;;
29538;SDS011;16482;51.046;4.498;2023-12-20T09:53:24;4.47;;;2.05;;
29538;SDS011;16482;51.046;4.498;2023-12-20T09:55:55;7.78;;;2.13;;
29538;SDS011;16482;51.046;4.498;2023-12-20T09:58:25;5.80;;;2.13;;
29538;SDS011;16482;51.046;4.498;2023-12-20T10:00:51;5.05;;;2.22;;
29538;SDS011;16482;51.046;4.498;2023-12-20T10:03:21;4.43;;;1.90;;
29538;SDS011;16482;51.046;4.498;2023-12-20T10:05:52;4.60;;;1.90;;
29538;SDS011;16482;51.046;4.498;2023-12-20T10:08:21;6.63;;;2.42;;
29538;SDS011;16482;51.046;4.498;2023-12-20T10:10:47;8.43;;;2.05;;
29538;SDS011;16482;51.046;4.498;2023-12-20T10:13:15;5.78;;;1.80;;
29538;SDS011;16482;51.046;4.498;2023-12-20T10:15:41;5.25;;;2.00;;
29538;SDS011;16482;51.046;4.498;2023-12-20T10:18:12;4.40;;;2.03;;
29538;SDS011;16482;51.046;4.498;2023-12-20T10:20:41;5.28;;;2.08;;
29538;SDS011;16482;51.046;4.498;2023-12-20T10:23:10;6.47;;;2.15;;
29538;SDS011;16482;51.046;4.498;2023-12-20T10:25:41;5.63;;;1.90;;
29538;SDS011;16482;51.046;4.498;2023-12-20T10:28:15;4.70;;;2.20;;
29538;SDS011;16482;51.046;4.498;2023-12-20T10:30:47;5.85;;;2.10;;
29538;SDS011;16482;51.046;4.498;2023-12-20T10:33:24;7.57;;;2.25;;
29538;SDS011;16482;51.046;4.498;2023-12-20T10:36:00;4.97;;;2.08;;
29538;SDS011;16482;51.046;4.498;2023-12-20T10:38:25;4.80;;;2.10;;
29538;SDS011;16482;51.046;4.498;2023-12-20T10:40:54;6.07;;;2.30;;
29538;SDS011;16482;51.046;4.498;2023-12-20T10:43:24;5.40;;;2.20;;
29538;SDS011;16482;51.046;4.498;2023-12-20T10:45:51;4.95;;;1.88;;
29538;SDS011;16482;51.046;4.498;2023-12-20T10:48:29;4.15;;;1.90;;
29538;SDS011;16482;51.046;4.498;2023-12-20T10:50:57;5.93;;;1.80;;
29538;SDS011;16482;51.046;4.498;2023-12-20T10:53:24;8.73;;;2.25;;
29538;SDS011;16482;51.046;4.498;2023-12-20T10:55:51;4.60;;;1.95;;
29538;SDS011;16482;51.046;4.498;2023-12-20T10:58:32;4.18;;;2.00;;
29538;SDS011;16482;51.046;4.498;2023-12-20T11:01:01;5.85;;;2.40;;
29538;SDS011;16482;51.046;4.498;2023-12-20T11:03:27;4.68;;;1.92;;
29538;SDS011;16482;51.046;4.498;2023-12-20T11:08:51;6.28;;;2.28;;
29538;SDS011;16482;51.046;4.498;2023-12-20T11:14:48;6.20;;;2.20;;
29538;SDS011;16482;51.046;4.498;2023-12-20T11:17:29;4.78;;;1.90;;
29538;SDS011;16482;51.046;4.498;2023-12-20T11:22:26;6.72;;;2.45;;
29538;SDS011;16482;51.046;4.498;2023-12-20T11:24:55;5.95;;;2.10;;
29538;SDS011;16482;51.046;4.498;2023-12-20T11:27:30;6.30;;;2.47;;
29538;SDS011;16482;51.046;4.498;2023-12-20T11:29:57;5.45;;;2.30;;
29538;SDS011;16482;51.046;4.498;2023-12-20T11:32:37;4.43;;;2.22;;
29538;SDS011;16482;51.046;4.498;2023-12-20T11:37:37;6.03;;;2.15;;
29538;SDS011;16482;51.046;4.498;2023-12-20T11:40:17;5.53;;;2.10;;
29538;SDS011;16482;51.046;4.498;2023-12-20T11:42:44;6.05;;;2.45;;
29538;SDS011;16482;51.046;4.498;2023-12-20T11:45:16;3.83;;;1.92;;
29538;SDS011;16482;51.046;4.498;2023-12-20T11:47:46;5.18;;;2.08;;
29538;SDS011;16482;51.046;4.498;2023-12-20T11:50:20;5.50;;;2.17;;
29538;SDS011;16482;51.046;4.498;2023-12-20T11:52:47;6.95;;;2.13;;
29538;SDS011;16482;51.046;4.498;2023-12-20T11:55:13;5.93;;;2.25;;
29538;SDS011;16482;51.046;4.498;2023-12-20T11:57:41;5.93;;;2.15;;
29538;SDS011;16482;51.046;4.498;2023-12-20T12:00:10;5.38;;;2.38;;
29538;SDS011;16482;51.046;4.498;2023-12-20T12:02:40;5.55;;;2.33;;
29538;SDS011;16482;51.046;4.498;2023-12-20T12:05:06;4.13;;;1.73;;
29538;SDS011;16482;51.046;4.498;2023-12-20T12:07:43;4.32;;;1.90;;
29538;SDS011;16482;51.046;4.498;2023-12-20T12:10:09;6.00;;;2.65;;
29538;SDS011;16482;51.046;4.498;2023-12-20T12:12:37;5.60;;;2.20;;
29538;SDS011;16482;51.046;4.498;2023-12-20T12:15:06;4.53;;;2.20;;
29538;SDS011;16482;51.046;4.498;2023-12-20T12:17:35;4.32;;;2.10;;
29538;SDS011;16482;51.046;4.498;2023-12-20T12:20:04;5.35;;;2.40;;
29538;SDS011;16482;51.046;4.498;2023-12-20T12:22:33;5.50;;;2.30;;
29538;SDS011;16482;51.046;4.498;2023-12-20T12:24:59;5.95;;;2.35;;
29538;SDS011;16482;51.046;4.498;2023-12-20T12:27:35;5.15;;;2.35;;
29538;SDS011;16482;51.046;4.498;2023-12-20T12:30:04;4.00;;;1.90;;
29538;SDS011;16482;51.046;4.498;2023-12-20T12:32:34;5.13;;;2.00;;
29538;SDS011;16482;51.046;4.498;2023-12-20T12:35:07;4.72;;;2.00;;
29538;SDS011;16482;51.046;4.498;2023-12-20T12:37:39;6.05;;;2.45;;
29538;SDS011;16482;51.046;4.498;2023-12-20T12:40:10;6.60;;;2.28;;
29538;SDS011;16482;51.046;4.498;2023-12-20T12:42:40;4.63;;;1.70;;
29538;SDS011;16482;51.046;4.498;2023-12-20T12:45:07;4.50;;;2.13;;
29538;SDS011;16482;51.046;4.498;2023-12-20T12:47:33;4.35;;;2.20;;
29538;SDS011;16482;51.046;4.498;2023-12-20T12:50:00;5.15;;;2.30;;
29538;SDS011;16482;51.046;4.498;2023-12-20T12:52:35;6.43;;;2.53;;
29538;SDS011;16482;51.046;4.498;2023-12-20T12:55:04;7.00;;;2.28;;
29538;SDS011;16482;51.046;4.498;2023-12-20T12:57:33;6.20;;;2.25;;
29538;SDS011;16482;51.046;4.498;2023-12-20T12:59:59;7.70;;;2.08;;
29538;SDS011;16482;51.046;4.498;2023-12-20T13:02:25;5.38;;;2.10;;
29538;SDS011;16482;51.046;4.498;2023-12-20T13:04:51;6.38;;;2.17;;
29538;SDS011;16482;51.046;4.498;2023-12-20T13:07:23;6.57;;;2.00;;
29538;SDS011;16482;51.046;4.498;2023-12-20T13:10:04;6.47;;;2.28;;
29538;SDS011;16482;51.046;4.498;2023-12-20T13:12:33;8.00;;;2.15;;
29538;SDS011;16482;51.046;4.498;2023-12-20T13:14:59;6.13;;;1.90;;
29538;SDS011;16482;51.046;4.498;2023-12-20T13:17:27;5.13;;;2.30;;
29538;SDS011;16482;51.046;4.498;2023-12-20T13:19:53;6.32;;;2.08;;
29538;SDS011;16482;51.046;4.498;2023-12-20T13:22:22;5.88;;;2.10;;
29538;SDS011;16482;51.046;4.498;2023-12-20T13:24:53;6.20;;;2.13;;
29538;SDS011;16482;51.046;4.498;2023-12-20T13:27:26;5.38;;;2.50;;
29538;SDS011;16482;51.046;4.498;2023-12-20T13:29:54;5.75;;;2.25;;
29538;SDS011;16482;51.046;4.498;2023-12-20T13:32:29;5.60;;;2.05;;
29538;SDS011;16482;51.046;4.498;2023-12-20T13:35:04;6.25;;;2.10;;
29538;SDS011;16482;51.046;4.498;2023-12-20T13:37:33;6.57;;;2.30;;
29538;SDS011;16482;51.046;4.498;2023-12-20T13:40:02;7.10;;;2.20;;
29538;SDS011;16482;51.046;4.498;2023-12-20T13:42:31;7.30;;;2.40;;
29538;SDS011;16482;51.046;4.498;2023-12-20T13:50:06;4.88;;;1.83;;
29538;SDS011;16482;51.046;4.498;2023-12-20T13:57:33;7.82;;;2.55;;
29538;SDS011;16482;51.046;4.498;2023-12-20T13:59:59;5.13;;;1.77;;
29538;SDS011;16482;51.046;4.498;2023-12-20T14:02:28;5.30;;;2.10;;
29538;SDS011;16482;51.046;4.498;2023-12-20T14:04:57;4.80;;;2.30;;
29538;SDS011;16482;51.046;4.498;2023-12-20T14:07:26;6.47;;;2.17;;
29538;SDS011;16482;51.046;4.498;2023-12-20T14:09:54;6.40;;;2.08;;
29538;SDS011;16482;51.046;4.498;2023-12-20T14:12:23;5.90;;;2.10;;
29538;SDS011;16482;51.046;4.498;2023-12-20T14:14:57;4.05;;;2.22;;
29538;SDS011;16482;51.046;4.498;2023-12-20T14:17:22;5.97;;;2.08;;
29538;SDS011;16482;51.046;4.498;2023-12-20T14:20:02;4.65;;;2.00;;
29538;SDS011;16482;51.046;4.498;2023-12-20T14:22:28;6.97;;;1.98;;
29538;SDS011;16482;51.046;4.498;2023-12-20T14:24:54;3.47;;;1.63;;
29538;SDS011;16482;51.046;4.498;2023-12-20T14:27:22;5.15;;;2.08;;
29538;SDS011;16482;51.046;4.498;2023-12-20T14:29:54;5.57;;;1.92;;
29538;SDS011;16482;51.046;4.498;2023-12-20T14:32:24;5.32;;;2.00;;
29538;SDS011;16482;51.046;4.498;2023-12-20T14:34:57;5.65;;;2.20;;
29538;SDS011;16482;51.046;4.498;2023-12-20T14:37:23;6.18;;;2.13;;
29538;SDS011;16482;51.046;4.498;2023-12-20T14:39:52;4.75;;;1.95;;
29538;SDS011;16482;51.046;4.498;2023-12-20T14:42:18;5.07;;;2.10;;
29538;SDS011;16482;51.046;4.498;2023-12-20T14:44:46;3.92;;;1.80;;
29538;SDS011;16482;51.046;4.498;2023-12-20T14:47:22;4.90;;;2.33;;
29538;SDS011;16482;51.046;4.498;2023-12-20T14:49:53;4.53;;;2.30;;
29538;SDS011;16482;51.046;4.498;2023-12-20T14:52:19;6.43;;;2.20;;
29538;SDS011;16482;51.046;4.498;2023-12-20T14:54:48;4.80;;;1.98;;
29538;SDS011;16482;51.046;4.498;2023-12-20T14:57:24;4.57;;;1.83;;
29538;SDS011;16482;51.046;4.498;2023-12-20T15:00:00;5.32;;;2.08;;
29538;SDS011;16482;51.046;4.498;2023-12-20T15:02:26;3.85;;;1.80;;
29538;SDS011;16482;51.046;4.498;2023-12-20T15:05:00;4.95;;;2.13;;
29538;SDS011;16482;51.046;4.498;2023-12-20T15:07:26;7.40;;;2.28;;
29538;SDS011;16482;51.046;4.498;2023-12-20T15:09:55;6.10;;;2.40;;
29538;SDS011;16482;51.046;4.498;2023-12-20T15:12:23;7.45;;;2.10;;
29538;SDS011;16482;51.046;4.498;2023-12-20T15:15:00;4.65;;;1.80;;
29538;SDS011;16482;51.046;4.498;2023-12-20T15:17:36;5.60;;;2.30;;
29538;SDS011;16482;51.046;4.498;2023-12-20T15:20:02;5.43;;;2.50;;
29538;SDS011;16482;51.046;4.498;2023-12-20T15:22:29;6.25;;;2.33;;
29538;SDS011;16482;51.046;4.498;2023-12-20T15:24:58;5.80;;;2.20;;
29538;SDS011;16482;51.046;4.498;2023-12-20T15:27:24;6.20;;;2.42;;
29538;SDS011;16482;51.046;4.498;2023-12-20T15:30:00;6.05;;;1.88;;
29538;SDS011;16482;51.046;4.498;2023-12-20T15:32:26;4.03;;;1.67;;